Time;durP1;ratioP1;P1;durP2;ratioP2;P2;SDS_P1;SDS_P2;PMS_P1;PMS_P2;Temp;Humidity;BMP_temperature;BMP_pressure;BME280_temperature;BME280_humidity;BME280_pressure;Samples;Min_cycle;Max_cycle;Signal;HPM_P1;HPM_P2
2021/12/28 00:01:18;;;;;;;40.28;14.18;;;;;;;-5.07;89.55;98473.70;2110865;83;21011;-58
2021/12/28 00:04:19;;;;;;;39.48;14.38;;;;;;;-5.03;89.59;98469.00;2154982;83;21070;-58
2021/12/28 00:07:20;;;;;;;41.42;15.03;;;;;;;-4.99;89.54;98470.69;2135272;83;21044;-58
2021/12/28 00:10:20;;;;;;;40.83;15.15;;;;;;;-4.98;89.56;98468.56;2154763;83;21043;-59
2021/12/28 00:13:21;;;;;;;44.27;15.95;;;;;;;-4.95;89.50;98465.99;2134790;83;21524;-59
2021/12/28 00:19:24;;;;;;;41.10;14.90;;;;;;;-4.99;89.25;98455.78;2110894;83;20990;-59
2021/12/28 00:22:24;;;;;;;41.42;14.75;;;;;;;-4.99;89.25;98455.78;2154715;83;21019;-59
2021/12/28 00:25:25;;;;;;;41.88;15.50;;;;;;;-4.97;89.35;98456.20;2135111;83;21108;-58
2021/12/28 00:28:25;;;;;;;40.63;15.23;;;;;;;-4.99;89.47;98459.19;2155056;83;20948;-60
2021/12/28 00:31:26;;;;;;;43.20;15.53;;;;;;;-4.98;89.54;98454.50;2134819;83;20993;-58
2021/12/28 00:34:26;;;;;;;36.42;13.78;;;;;;;-4.96;89.63;98458.33;2154780;83;21007;-59
2021/12/28 00:37:27;;;;;;;43.42;14.87;;;;;;;-4.97;89.60;98460.05;2134981;83;21048;-59
2021/12/28 00:40:27;;;;;;;43.02;15.30;;;;;;;-4.93;89.60;98465.98;2154736;82;21457;-58
2021/12/28 00:43:27;;;;;;;41.48;14.83;;;;;;;-4.83;89.71;98466.80;2134829;83;21123;-59
2021/12/28 00:46:28;;;;;;;39.90;15.85;;;;;;;-4.81;89.55;98467.22;2154957;83;21043;-58
2021/12/28 00:49:29;;;;;;;43.30;14.85;;;;;;;-4.75;89.44;98462.50;2135055;83;21056;-58
2021/12/28 00:52:29;;;;;;;39.80;14.45;;;;;;;-4.82;89.27;98463.39;2154584;83;21010;-58
2021/12/28 00:55:30;;;;;;;40.90;15.15;;;;;;;-4.86;89.25;98467.66;2134969;83;21468;-59
2021/12/28 00:58:31;;;;;;;42.65;15.18;;;;;;;-4.89;89.23;98468.95;2154706;83;21040;-59
2021/12/28 01:01:32;;;;;;;44.38;15.85;;;;;;;-4.86;89.46;98466.38;2134935;83;20984;-58
2021/12/28 01:04:32;;;;;;;42.75;14.75;;;;;;;-4.81;89.37;98463.38;2154770;83;21059;-58
2021/12/28 01:07:33;;;;;;;42.20;15.65;;;;;;;-4.82;89.30;98462.11;2135034;83;21495;-58
2021/12/28 01:10:33;;;;;;;39.27;15.48;;;;;;;-4.86;89.39;98462.53;2155022;83;21054;-58
2021/12/28 01:13:34;;;;;;;40.92;14.83;;;;;;;-4.91;89.35;98465.12;2133291;83;21009;-58
2021/12/28 01:16:34;;;;;;;40.25;14.78;;;;;;;-4.92;89.51;98458.30;2148292;83;20936;-59
2021/12/28 01:19:34;;;;;;;43.40;16.15;;;;;;;-4.95;89.60;98454.92;2131416;84;21154;-58
2021/12/28 01:22:35;;;;;;;43.87;14.38;;;;;;;-5.01;89.73;98451.95;2148138;83;20940;-58
2021/12/28 01:25:36;;;;;;;40.63;14.20;;;;;;;-5.05;89.84;98442.59;2131421;84;21476;-58
2021/12/28 01:28:36;;;;;;;45.10;14.47;;;;;;;-5.06;89.86;98449.42;2148228;83;20936;-58
2021/12/28 01:31:37;;;;;;;43.73;15.88;;;;;;;-5.06;89.79;98445.59;2130959;84;21065;-58
2021/12/28 01:34:38;;;;;;;42.83;14.03;;;;;;;-5.05;89.79;98440.88;2148420;83;20956;-58
2021/12/28 01:37:39;;;;;;;38.95;14.10;;;;;;;-5.10;89.82;98441.34;2131531;84;21027;-58
2021/12/28 01:40:39;;;;;;;41.40;15.20;;;;;;;-5.13;89.95;98434.09;2148218;83;20967;-59
2021/12/28 01:43:41;;;;;;;37.88;13.83;;;;;;;-5.15;89.97;98433.26;2131390;84;21052;-60
2021/12/28 01:46:41;;;;;;;43.25;15.50;;;;;;;-5.14;90.09;98423.02;2148269;83;21641;-59
2021/12/28 01:49:42;;;;;;;43.92;14.83;;;;;;;-5.18;90.11;98432.84;2131280;84;20984;-59
2021/12/28 01:52:42;;;;;;;46.75;15.35;;;;;;;-5.20;90.16;98423.06;2148192;83;20975;-58
2021/12/28 01:55:43;;;;;;;41.40;14.23;;;;;;;-5.19;90.46;98423.90;2131409;84;21008;-58
2021/12/28 01:58:44;;;;;;;40.12;14.35;;;;;;;-5.20;90.27;98417.08;2147990;83;21007;-58
2021/12/28 02:01:45;;;;;;;38.65;14.10;;;;;;;-5.15;90.30;98412.80;2131548;84;21544;-58
2021/12/28 02:04:45;;;;;;;42.15;15.10;;;;;;;-5.15;90.34;98398.73;2148087;83;20990;-58
2021/12/28 02:07:46;;;;;;;42.50;14.60;;;;;;;-5.17;90.28;98408.10;2131363;84;21052;-59
2021/12/28 02:10:46;;;;;;;40.08;14.20;;;;;;;-5.20;90.43;98400.45;2147985;83;20991;-58
2021/12/28 02:13:47;;;;;;;37.48;13.18;;;;;;;-5.20;90.60;98401.73;2131162;83;21599;-58
2021/12/28 02:16:47;;;;;;;39.35;14.58;;;;;;;-5.22;90.66;98394.06;2148003;83;20935;-59
2021/12/28 02:19:47;;;;;;;40.38;14.80;;;;;;;-5.14;90.67;98396.58;2131388;84;21041;-59
2021/12/28 02:22:48;;;;;;;42.65;15.05;;;;;;;-5.11;90.58;98389.75;2148112;83;20971;-59
2021/12/28 02:25:48;;;;;;;40.03;14.98;;;;;;;-5.06;90.55;98382.92;2131257;84;21012;-58
2021/12/28 02:28:49;;;;;;;44.93;14.65;;;;;;;-5.06;90.45;98380.36;2147998;83;21095;-59
2021/12/28 02:31:55;;;;;;;43.92;15.28;;;;;;;-5.08;90.50;98384.62;2131394;84;21518;-58
2021/12/28 02:34:52;;;;;;;39.92;15.60;;;;;;;-5.08;90.59;98380.78;2120038;83;21003;-58
2021/12/28 02:37:52;;;;;;;38.88;14.35;;;;;;;-5.08;90.67;98382.50;2131228;84;21531;-59
2021/12/28 02:40:52;;;;;;;40.45;14.98;;;;;;;-5.08;90.74;98374.83;2147727;83;21912;-58
2021/12/28 02:43:53;;;;;;;41.37;15.38;;;;;;;-5.08;90.89;98374.83;2131244;84;21032;-59
2021/12/28 02:46:54;;;;;;;41.77;15.32;;;;;;;-5.08;90.77;98371.83;2148090;83;21043;-59
2021/12/28 02:49:54;;;;;;;44.42;15.88;;;;;;;-5.06;91.01;98377.80;2131369;84;20993;-58
2021/12/28 02:52:54;;;;;;;42.58;15.10;;;;;;;-5.07;90.98;98379.94;2147973;83;21035;-60
2021/12/28 02:55:55;;;;;;;40.50;14.80;;;;;;;-5.10;91.12;98381.64;2131245;84;21503;-59
2021/12/28 02:58:56;;;;;;;42.48;15.13;;;;;;;-5.09;91.09;98377.80;2148049;83;21040;-58
2021/12/28 03:01:56;;;;;;;39.38;14.85;;;;;;;-5.09;91.26;98376.52;2131707;84;20993;-59
2021/12/28 03:04:57;;;;;;;43.08;15.10;;;;;;;-5.12;91.21;98376.98;2147956;83;21095;-58
2021/12/28 03:07:57;;;;;;;47.78;15.58;;;;;;;-5.09;91.12;98371.84;2131398;84;21028;-59
2021/12/28 03:10:58;;;;;;;44.53;14.50;;;;;;;-5.06;91.25;98363.73;2148157;83;21523;-59
2021/12/28 03:13:59;;;;;;;43.95;15.45;;;;;;;-5.03;91.20;98356.89;2133008;83;21028;-59
2021/12/28 03:16:59;;;;;;;40.58;15.13;;;;;;;-5.00;91.23;98346.20;2155170;83;21083;-58
2021/12/28 03:19:59;;;;;;;41.53;15.70;;;;;;;-4.99;91.07;98347.06;2135033;83;20996;-58
2021/12/28 03:23:00;;;;;;;37.88;14.45;;;;;;;-4.97;91.03;98354.29;2154905;83;21067;-58
2021/12/28 03:26:00;;;;;;;42.40;15.80;;;;;;;-4.96;91.06;98352.16;2134914;83;20968;-58
2021/12/28 03:29:01;;;;;;;39.83;15.95;;;;;;;-4.96;90.99;98352.16;2154821;83;21542;-58
2021/12/28 03:32:02;;;;;;;42.05;15.25;;;;;;;-4.94;91.03;98346.59;2135128;83;20989;-58
2021/12/28 03:35:03;;;;;;;39.33;15.05;;;;;;;-4.93;90.99;98349.17;2154735;83;20996;-58
2021/12/28 03:38:03;;;;;;;38.48;14.78;;;;;;;-4.94;90.97;98352.98;2134825;83;21059;-58
2021/12/28 03:41:07;;;;;;;38.45;14.80;;;;;;;-4.94;90.94;98347.45;2154891;83;21530;-59
2021/12/28 03:44:06;;;;;;;39.85;14.68;;;;;;;-4.93;90.87;98344.05;2110964;83;21028;-58
2021/12/28 03:47:07;;;;;;;37.42;14.30;;;;;;;-4.93;90.94;98344.05;2154939;83;21519;-59
2021/12/28 03:50:08;;;;;;;39.00;14.80;;;;;;;-4.94;90.88;98346.18;2134979;83;21055;-58
2021/12/28 03:53:09;;;;;;;44.10;15.15;;;;;;;-4.94;90.88;98344.90;2154888;83;21031;-58
2021/12/28 03:56:09;;;;;;;40.92;15.88;;;;;;;-4.90;90.91;98341.88;2134983;83;20961;-58
2021/12/28 03:59:09;;;;;;;41.18;14.45;;;;;;;-4.94;90.85;98346.18;2154819;83;21510;-59
2021/12/28 04:02:10;;;;;;;42.65;16.35;;;;;;;-4.89;90.89;98346.14;2135147;83;21020;-58
2021/12/28 04:05:10;;;;;;;41.63;15.38;;;;;;;-4.86;90.79;98341.00;2154773;83;21102;-57
2021/12/28 04:08:11;;;;;;;39.67;14.85;;;;;;;-4.88;90.62;98343.58;2135101;83;21059;-59
2021/12/28 04:14:14;;;;;;;38.60;15.00;;;;;;;-4.81;90.58;98344.39;2110663;83;21041;-59
2021/12/28 04:17:15;;;;;;;38.13;14.40;;;;;;;-4.83;90.55;98346.09;2155040;83;20976;-58
2021/12/28 04:20:15;;;;;;;38.53;14.78;;;;;;;-4.87;90.57;98331.62;2135084;83;21012;-59
2021/12/28 04:23:16;;;;;;;34.92;13.95;;;;;;;-4.82;90.46;98346.96;2154763;83;21022;-58
2021/12/28 04:26:16;;;;;;;37.85;14.47;;;;;;;-4.81;90.42;98351.20;2135087;83;21036;-58
2021/12/28 04:29:17;;;;;;;39.53;14.78;;;;;;;-4.79;90.48;98355.45;2155025;83;20955;-58
2021/12/28 04:32:17;;;;;;;37.63;14.60;;;;;;;-4.80;90.30;98355.47;2134474;83;21028;-59
2021/12/28 04:35:18;;;;;;;39.67;15.75;;;;;;;-4.83;90.35;98355.05;2154816;83;20959;-58
2021/12/28 04:38:19;;;;;;;35.75;14.23;;;;;;;-4.84;90.41;98353.78;2134812;83;21481;-59
2021/12/28 04:41:19;;;;;;;37.78;14.18;;;;;;;-4.87;90.49;98340.16;2154982;83;21055;-58
2021/12/28 04:44:24;;;;;;;39.88;14.83;;;;;;;-4.89;90.41;98346.14;2134766;83;21043;-60
2021/12/28 04:47:22;;;;;;;38.00;13.65;;;;;;;-4.85;90.52;98344.43;2128882;83;21494;-59
2021/12/28 04:50:23;;;;;;;33.92;13.65;;;;;;;-4.82;90.45;98340.56;2134934;83;21020;-58
2021/12/28 04:53:23;;;;;;;37.67;14.63;;;;;;;-4.81;90.32;98340.96;2154875;82;21059;-58
2021/12/28 04:56:24;;;;;;;36.68;14.73;;;;;;;-4.84;90.26;98338.02;2134967;83;20981;-58
2021/12/28 04:59:24;;;;;;;35.55;14.80;;;;;;;-4.83;90.38;98338.86;2154719;83;21489;-58
2021/12/28 05:02:25;;;;;;;37.63;14.55;;;;;;;-4.82;90.44;98342.68;2134969;83;21037;-59
2021/12/28 05:05:25;;;;;;;37.17;13.95;;;;;;;-4.80;90.39;98338.39;2154922;83;20991;-59
2021/12/28 05:08:25;;;;;;;37.75;14.85;;;;;;;-4.80;90.32;98335.83;2135034;83;21037;-58
2021/12/28 05:11:26;;;;;;;38.80;15.08;;;;;;;-4.81;90.29;98334.16;2154954;83;20986;-59
2021/12/28 05:14:27;;;;;;;41.05;15.15;;;;;;;-4.77;90.42;98337.52;2134731;83;21072;-58
2021/12/28 05:17:29;;;;;;;;;;;;;;;-4.73;90.29;98332.81;2130228;83;20999;-59
2021/12/28 05:20:30;;;;;;;36.38;13.65;;;;;;;-4.78;90.22;98325.17;2134768;83;20141;-58
2021/12/28 05:23:30;;;;;;;33.58;13.30;;;;;;;-4.78;90.26;98326.89;2154914;83;21022;-58
2021/12/28 05:26:31;;;;;;;34.95;13.30;;;;;;;-4.80;90.19;98326.88;2134768;83;21048;-60
2021/12/28 05:29:31;;;;;;;36.83;14.75;;;;;;;-4.79;90.23;98329.86;2154750;83;21030;-59
2021/12/28 05:32:32;;;;;;;35.20;13.83;;;;;;;-4.81;90.10;98337.99;2134908;83;21480;-58
2021/12/28 05:35:32;;;;;;;31.70;12.13;;;;;;;-4.83;90.08;98342.25;2154690;83;21004;-58
2021/12/28 05:38:32;;;;;;;35.70;13.80;;;;;;;-4.84;90.07;98336.73;2134946;83;20972;-58
2021/12/28 05:41:33;;;;;;;34.18;13.65;;;;;;;-4.84;90.08;98338.02;2154929;83;20991;-59
2021/12/28 05:44:35;;;;;;;36.50;13.68;;;;;;;-4.83;90.07;98331.19;2110282;83;21037;-58
2021/12/28 05:47:36;;;;;;;35.40;15.10;;;;;;;-4.85;90.10;98327.80;2154920;83;21039;-58
2021/12/28 05:50:36;;;;;;;37.83;14.20;;;;;;;-4.87;90.12;98332.48;2135133;83;20980;-60
2021/12/28 05:53:37;;;;;;;39.27;14.10;;;;;;;-4.85;90.16;98328.64;2154916;83;21019;-59
2021/12/28 05:56:37;;;;;;;32.75;12.90;;;;;;;-4.84;90.09;98328.20;2134726;83;21094;-58
2021/12/28 05:59:38;;;;;;;32.88;13.32;;;;;;;-4.84;90.08;98329.47;2154465;83;21051;-58
2021/12/28 06:02:38;;;;;;;34.73;13.25;;;;;;;-4.85;90.05;98332.47;2134795;83;21483;-58
2021/12/28 06:05:39;;;;;;;33.35;13.53;;;;;;;-4.86;90.14;98326.93;2154897;83;21034;-59
2021/12/28 06:08:39;;;;;;;40.10;14.87;;;;;;;-4.85;90.23;98325.24;2134996;83;21056;-58
2021/12/28 06:11:40;;;;;;;33.88;13.32;;;;;;;-4.81;90.19;98317.52;2154781;83;20959;-58
2021/12/28 06:14:41;;;;;;;34.18;13.60;;;;;;;-4.82;90.14;98322.66;2133272;83;21100;-58
2021/12/28 06:17:41;;;;;;;34.08;13.43;;;;;;;-4.80;90.22;98331.16;2148018;83;20971;-58
2021/12/28 06:20:42;;;;;;;35.92;13.43;;;;;;;-4.78;90.13;98332.02;2131433;84;21519;-58
2021/12/28 06:23:42;;;;;;;35.55;14.25;;;;;;;-4.78;90.23;98330.30;2148028;83;21604;-58
2021/12/28 06:26:43;;;;;;;31.27;13.15;;;;;;;-4.76;90.16;98331.11;2131524;84;21127;-58
2021/12/28 06:29:43;;;;;;;34.50;12.98;;;;;;;-4.73;90.14;98328.97;2147991;83;21030;-58
2021/12/28 06:32:44;;;;;;;36.50;13.25;;;;;;;-4.71;90.25;98325.55;2131543;84;21032;-58
2021/12/28 06:35:49;;;;;;;37.53;14.07;;;;;;;-4.67;90.10;98326.36;2147513;83;21027;-59
2021/12/28 06:38:50;;;;;;;34.78;13.83;;;;;;;-4.67;90.13;98320.40;2131668;84;21555;-59
2021/12/28 06:41:51;;;;;;;36.17;13.38;;;;;;;-4.63;90.23;98325.92;2147983;83;20972;-58
2021/12/28 06:44:52;;;;;;;32.75;12.95;;;;;;;-4.60;90.15;98332.29;2131588;84;21064;-58
2021/12/28 06:47:53;;;;;;;;;;;;;;;-4.58;90.00;98333.14;2150098;83;21046;-58
2021/12/28 06:50:54;;;;;;;35.83;14.18;;;;;;;-4.55;90.02;98339.52;2131097;84;20403;-58
2021/12/28 06:53:54;;;;;;;37.75;14.18;;;;;;;-4.58;89.93;98335.26;2148094;83;20970;-58
2021/12/28 06:56:55;;;;;;;35.00;14.03;;;;;;;-4.63;89.88;98334.88;2131355;84;21061;-58
2021/12/28 06:59:55;;;;;;;34.58;13.90;;;;;;;-4.63;89.97;98331.87;2148179;83;21011;-58
2021/12/28 07:02:56;;;;;;;36.08;13.53;;;;;;;-4.64;89.92;98330.20;2131246;84;21028;-58
2021/12/28 07:05:56;;;;;;;32.23;13.38;;;;;;;-4.67;89.94;98327.64;2147992;83;21582;-58
2021/12/28 07:08:57;;;;;;;36.23;14.75;;;;;;;-4.64;90.09;98342.13;2131335;84;20984;-58
2021/12/28 07:11:57;;;;;;;33.40;12.37;;;;;;;-4.65;90.01;98340.01;2148130;83;21047;-58
2021/12/28 07:14:57;;;;;;;36.53;13.95;;;;;;;-4.65;89.98;98341.28;2132942;83;20992;-57
2021/12/28 07:17:58;;;;;;;36.30;14.85;;;;;;;-4.66;90.03;98348.54;2154530;83;21074;-58
2021/12/28 07:21:00;;;;;;;37.88;14.03;;;;;;;-4.65;90.13;98350.25;2134871;83;21036;-58
2021/12/28 07:24:00;;;;;;;38.85;14.98;;;;;;;-4.59;89.98;98357.03;2154625;83;21010;-58
2021/12/28 07:27:01;;;;;;;40.55;15.50;;;;;;;-4.56;90.03;98361.69;2134842;83;21028;-58
2021/12/28 07:30:02;;;;;;;36.80;14.50;;;;;;;-4.50;89.99;98350.55;2154674;83;21039;-59
2021/12/28 07:33:02;;;;;;;41.05;15.60;;;;;;;-4.46;89.86;98350.11;2134394;83;21495;-59
2021/12/28 07:36:03;;;;;;;43.10;15.50;;;;;;;-4.40;89.90;98360.29;2154763;83;21074;-59
2021/12/28 07:39:03;;;;;;;41.02;15.30;;;;;;;-4.34;89.66;98365.34;2134491;83;21542;-59
2021/12/28 07:42:04;;;;;;;43.10;15.03;;;;;;;-4.32;89.57;98364.92;2154974;83;21047;-59
2021/12/28 07:45:05;;;;;;;38.38;15.38;;;;;;;-4.23;89.60;98362.27;2134549;83;21009;-58
2021/12/28 07:48:06;;;;;;;39.23;15.90;;;;;;;-4.13;89.40;98366.88;2154272;83;20987;-58
2021/12/28 07:51:07;;;;;;;37.70;14.70;;;;;;;-4.07;89.44;98367.26;2135033;83;21479;-58
2021/12/28 07:54:07;;;;;;;35.03;13.58;;;;;;;-4.04;89.06;98371.94;2154791;83;21533;-58
2021/12/28 07:57:08;;;;;;;33.38;13.98;;;;;;;-4.03;89.29;98372.78;2134992;83;21073;-59
2021/12/28 08:00:08;;;;;;;32.65;14.23;;;;;;;-3.98;88.86;98363.31;2155062;83;20964;-59
2021/12/28 08:03:08;;;;;;;33.73;12.90;;;;;;;-4.05;88.69;98366.39;2135122;83;21021;-59
2021/12/28 08:06:09;;;;;;;34.08;14.60;;;;;;;-4.07;88.47;98365.98;2154786;83;20979;-59
2021/12/28 08:09:09;;;;;;;33.15;13.38;;;;;;;-4.09;88.67;98362.16;2134977;83;21470;-58
2021/12/28 08:12:10;;;;;;;44.33;18.90;;;;;;;-4.12;88.63;98364.75;2154736;83;21530;-60
2021/12/28 08:15:12;;;;;;;34.95;12.93;;;;;;;-4.10;88.89;98360.45;2108614;84;21001;-58
2021/12/28 08:18:13;;;;;;;33.33;13.88;;;;;;;-4.11;88.55;98352.33;2147924;83;21101;-58
2021/12/28 08:21:13;;;;;;;34.88;14.05;;;;;;;-4.06;88.79;98346.75;2131504;84;21052;-59
2021/12/28 08:24:14;;;;;;;35.43;13.55;;;;;;;-3.93;88.96;98339.78;2148356;83;20987;-59
2021/12/28 08:27:14;;;;;;;35.05;14.03;;;;;;;-3.84;88.30;98338.84;2131474;84;20976;-60
2021/12/28 08:30:15;;;;;;;35.68;13.10;;;;;;;-3.88;88.26;98339.32;2147639;83;20972;-60
2021/12/28 08:33:15;;;;;;;39.00;13.95;;;;;;;-3.88;88.09;98323.08;2131194;84;21495;-59
2021/12/28 08:36:16;;;;;;;37.78;14.83;;;;;;;-3.87;88.25;98324.78;2148462;83;20983;-60
2021/12/28 08:39:16;;;;;;;37.08;13.58;;;;;;;-3.75;88.52;98328.50;2131334;84;21024;-60
2021/12/28 08:42:17;;;;;;;36.45;13.40;;;;;;;-3.69;88.11;98324.58;2148223;83;20932;-60
2021/12/28 08:45:18;;;;;;;37.58;14.00;;;;;;;-3.70;87.71;98331.00;2131341;84;21073;-61
2021/12/28 08:48:18;;;;;;;31.17;12.90;;;;;;;-3.75;87.84;98343.02;2148045;83;21415;-61
2021/12/28 08:51:19;;;;;;;37.40;15.03;;;;;;;-3.75;87.93;98341.32;2131360;84;21552;-60
2021/12/28 08:54:19;;;;;;;35.15;14.15;;;;;;;-3.66;88.01;98340.36;2148241;83;20974;-61
2021/12/28 08:57:20;;;;;;;48.52;21.87;;;;;;;-3.60;87.92;98336.44;2131565;84;20976;-60
2021/12/28 09:00:21;;;;;;;36.58;15.03;;;;;;;-3.53;87.87;98322.67;2148189;83;21015;-61
2021/12/28 09:03:22;;;;;;;38.92;15.88;;;;;;;-3.38;88.09;98315.21;2131343;84;21000;-60
2021/12/28 09:06:22;;;;;;;40.92;18.45;;;;;;;-3.28;87.51;98308.70;2148058;83;21325;-61
2021/12/28 09:09:23;;;;;;;30.05;13.10;;;;;;;-3.27;87.40;98302.27;2131258;84;21643;-60
2021/12/28 09:12:23;;;;;;;32.17;13.20;;;;;;;-3.24;86.59;98305.22;2148302;83;20987;-61
2021/12/28 09:15:24;;;;;;;31.60;14.07;;;;;;;-3.29;86.75;98305.27;2131368;84;21005;-60
2021/12/28 09:18:25;;;;;;;29.60;12.13;;;;;;;-3.19;87.54;98312.41;2148000;83;21075;-61
2021/12/28 09:21:25;;;;;;;33.05;11.97;;;;;;;-3.15;86.82;98309.80;2131443;84;20984;-60
2021/12/28 09:24:25;;;;;;;33.78;13.88;;;;;;;-3.18;86.38;98308.53;2148014;83;21566;-60
2021/12/28 09:27:26;;;;;;;28.73;11.10;;;;;;;-3.23;85.77;98296.22;2131199;84;21019;-61
2021/12/28 09:30:27;;;;;;;33.92;12.90;;;;;;;-3.26;85.28;98294.12;2148266;83;20990;-60
2021/12/28 09:33:27;;;;;;;30.92;12.33;;;;;;;-3.22;86.17;98293.21;2131437;84;20984;-60
2021/12/28 09:36:27;;;;;;;31.62;12.60;;;;;;;-3.09;86.39;98296.45;2148027;83;21022;-60
2021/12/28 09:39:28;;;;;;;31.68;12.78;;;;;;;-2.97;85.92;98282.17;2131413;84;20985;-60
2021/12/28 09:42:29;;;;;;;30.50;12.37;;;;;;;-2.99;85.45;98280.05;2148233;83;21483;-60
2021/12/28 09:45:30;;;;;;;27.75;12.00;;;;;;;-2.95;85.24;98284.27;2131424;84;21000;-61
2021/12/28 09:48:31;;;;;;;30.80;13.03;;;;;;;-2.93;85.44;98274.84;2147807;83;21067;-61
2021/12/28 09:51:32;;;;;;;31.30;12.77;;;;;;;-2.92;85.46;98275.23;2131672;84;20982;-61
2021/12/28 09:54:33;;;;;;;29.25;11.90;;;;;;;-2.85;85.40;98267.01;2147737;83;21067;-60
2021/12/28 09:57:33;;;;;;;32.25;12.75;;;;;;;-2.79;85.31;98269.05;2131468;84;21076;-61
2021/12/28 10:00:34;;;;;;;34.83;13.85;;;;;;;-2.73;85.56;98274.53;2148062;83;20971;-60
2021/12/28 10:03:34;;;;;;;44.30;15.83;;;;;;;-2.64;85.15;98273.08;2131302;84;21008;-60
2021/12/28 10:06:35;;;;;;;38.38;15.38;;;;;;;-2.67;84.81;98274.83;2148001;83;21031;-61
2021/12/28 10:09:35;;;;;;;33.73;13.05;;;;;;;-2.64;85.04;98274.36;2131076;84;21460;-61
2021/12/28 10:12:36;;;;;;;34.45;15.00;;;;;;;-2.54;85.41;98275.48;2147973;83;21526;-61
2021/12/28 10:15:36;;;;;;;37.42;15.45;;;;;;;-2.54;84.80;98275.06;2131372;84;21101;-61
2021/12/28 10:18:37;;;;;;;30.88;12.82;;;;;;;-2.53;85.17;98273.33;2148264;83;20962;-60
2021/12/28 10:21:37;;;;;;;38.75;15.50;;;;;;;-2.54;84.33;98263.92;2131276;84;21012;-62
2021/12/28 10:24:37;;;;;;;42.90;15.70;;;;;;;-2.48;85.27;98257.42;2147914;83;20979;-61
2021/12/28 10:27:39;;;;;;;36.63;14.65;;;;;;;-2.38;85.25;98259.39;2130480;84;21617;-61
2021/12/28 10:30:40;;;;;;;35.43;13.83;;;;;;;-2.34;84.85;98270.86;2145691;83;21031;-61
2021/12/28 10:33:41;;;;;;;32.63;14.30;;;;;;;-2.36;84.30;98270.03;2129394;84;21064;-61
2021/12/28 10:36:43;;;;;;;31.25;14.47;;;;;;;-2.33;84.97;98263.99;2145863;83;21106;-61
2021/12/28 10:39:43;;;;;;;33.80;13.95;;;;;;;-2.30;84.57;98266.50;2103352;84;20996;-61
2021/12/28 10:42:44;;;;;;;33.45;14.33;;;;;;;-2.36;83.85;98267.45;2146235;83;21028;-61
2021/12/28 10:45:44;;;;;;;35.98;14.85;;;;;;;-2.50;83.68;98259.14;2131373;84;21028;-61
2021/12/28 10:48:47;;;;;;;34.03;14.98;;;;;;;-2.54;84.39;98253.23;2147863;83;21486;-61
2021/12/28 10:51:48;;;;;;;34.48;15.38;;;;;;;;;;2105542;84;20989;-62
2021/12/28 10:54:48;;;;;;;38.30;15.38;;;;;;;-2.34;84.59;98247.75;2148101;83;20983;-61
2021/12/28 10:57:49;;;;;;;31.62;14.33;;;;;;;-2.33;83.84;98249.45;2131144;84;21036;-61
2021/12/28 11:00:49;;;;;;;32.78;14.68;;;;;;;-2.31;83.64;98248.13;2147856;83;21028;-62
2021/12/28 11:03:50;;;;;;;36.38;15.60;;;;;;;-2.31;83.87;98245.56;2131060;84;21548;-61
2021/12/28 11:06:50;;;;;;;35.55;15.72;;;;;;;-2.33;83.90;98241.73;2147928;83;20976;-62
2021/12/28 11:09:51;;;;;;;33.35;14.63;;;;;;;-2.34;83.36;98230.18;2131631;84;21064;-62
2021/12/28 11:12:52;;;;;;;36.23;15.15;;;;;;;-2.34;83.28;98226.33;2147977;83;20983;-62
2021/12/28 11:15:52;;;;;;;34.23;16.12;;;;;;;-2.29;83.12;98224.53;2132584;83;21028;-61
2021/12/28 11:18:53;;;;;;;35.52;15.85;;;;;;;-2.27;83.07;98210.79;2154764;83;21588;-61
2021/12/28 11:21:53;;;;;;;33.35;14.63;;;;;;;-2.25;83.29;98204.78;2134785;83;21020;-60
2021/12/28 11:24:53;;;;;;;32.20;14.25;;;;;;;-2.29;82.77;98194.53;2154615;83;21042;-61
2021/12/28 11:27:54;;;;;;;34.85;13.28;;;;;;;-2.31;82.63;98177.48;2135142;83;20984;-61
2021/12/28 11:30:55;;;;;;;34.25;15.48;;;;;;;-2.34;82.70;98192.92;2154914;83;21119;-62
2021/12/28 11:33:55;;;;;;;34.40;14.70;;;;;;;-2.32;83.41;98203.59;2135038;83;21028;-61
2021/12/28 11:36:56;;;;;;;35.10;15.70;;;;;;;-2.25;83.39;98203.05;2154885;83;21538;-61
2021/12/28 11:39:57;;;;;;;33.35;14.50;;;;;;;-2.23;82.85;98188.88;2135025;83;21807;-61
2021/12/28 11:42:57;;;;;;;34.60;14.40;;;;;;;-2.36;82.09;98157.45;2154914;83;21058;-62
2021/12/28 11:45:57;;;;;;;38.58;15.65;;;;;;;-2.48;82.30;98173.95;2135255;83;21008;-61
2021/12/28 11:48:58;;;;;;;34.40;14.00;;;;;;;-2.56;82.96;98163.80;2154949;82;20999;-60
2021/12/28 11:51:59;;;;;;;31.55;14.23;;;;;;;-2.61;82.57;98174.61;2134853;83;21081;-60
2021/12/28 11:55:00;;;;;;;32.45;14.18;;;;;;;-2.65;83.23;98171.69;2154938;83;21526;-61
2021/12/28 11:58:01;;;;;;;34.40;14.18;;;;;;;-2.61;83.56;98163.89;2135253;83;20961;-62
2021/12/28 12:01:02;;;;;;;34.95;14.55;;;;;;;-2.54;83.65;98158.22;2155129;83;20959;-61
2021/12/28 12:04:03;;;;;;;33.98;14.43;;;;;;;-2.50;83.94;98156.42;2134542;83;21060;-61
2021/12/28 12:07:05;;;;;;;35.30;14.87;;;;;;;-2.41;83.81;98154.97;2154610;83;21510;-61
2021/12/28 12:10:05;;;;;;;33.70;15.48;;;;;;;-2.34;84.19;98149.26;2135255;83;21048;-61
2021/12/28 12:13:06;;;;;;;34.00;14.85;;;;;;;-2.27;83.72;98135.41;2154737;83;21011;-61
2021/12/28 12:16:06;;;;;;;34.08;14.50;;;;;;;-2.30;83.66;98138.05;2133431;83;21029;-61
2021/12/28 12:19:07;;;;;;;35.40;14.98;;;;;;;-2.31;83.30;98128.67;2147857;83;21637;-60
2021/12/28 12:22:07;;;;;;;34.67;15.23;;;;;;;-2.38;83.77;98125.37;2131863;84;21020;-61
2021/12/28 12:25:08;;;;;;;35.40;15.43;;;;;;;-2.33;83.07;98123.98;2148243;83;21015;-61
2021/12/28 12:28:08;;;;;;;35.78;14.70;;;;;;;-2.49;82.36;98124.28;2131723;84;20981;-61
2021/12/28 12:31:09;;;;;;;40.73;16.07;;;;;;;-2.65;82.66;98111.34;2148225;83;20971;-61
2021/12/28 12:34:09;;;;;;;35.20;14.87;;;;;;;-2.73;83.07;98097.38;2131435;84;21016;-61
2021/12/28 12:37:10;;;;;;;37.55;16.12;;;;;;;-2.83;83.21;98100.97;2147941;83;21523;-60
2021/12/28 12:40:10;;;;;;;40.65;17.15;;;;;;;-2.85;83.50;98096.31;2131586;84;20981;-61
2021/12/28 12:43:11;;;;;;;36.93;16.48;;;;;;;-2.77;83.65;98094.87;2147858;83;21019;-61
2021/12/28 12:46:12;;;;;;;37.30;16.62;;;;;;;-2.68;83.61;98103.70;2131478;84;21111;-61
2021/12/28 12:49:12;;;;;;;36.53;16.80;;;;;;;-2.65;83.64;98102.36;2147889;83;21043;-61
2021/12/28 12:52:13;;;;;;;36.25;15.85;;;;;;;-2.53;83.26;98093.56;2131579;84;21103;-61
2021/12/28 12:55:14;;;;;;;36.70;16.67;;;;;;;-2.50;82.53;98096.06;2148122;83;21058;-61
2021/12/28 12:58:14;;;;;;;35.05;15.45;;;;;;;-2.49;83.08;98096.48;2131596;84;21095;-61
2021/12/28 13:01:15;;;;;;;39.35;16.75;;;;;;;-2.47;83.30;98096.87;2148214;83;20987;-60
2021/12/28 13:04:15;;;;;;;36.98;16.45;;;;;;;-2.48;82.97;98105.44;2131677;84;20972;-61
2021/12/28 13:07:16;;;;;;;37.48;15.58;;;;;;;-2.42;82.69;98103.64;2147899;83;21016;-60
2021/12/28 13:10:16;;;;;;;36.93;16.82;;;;;;;-2.36;83.15;98101.77;2131467;84;20941;-60
2021/12/28 13:13:17;;;;;;;34.73;16.30;;;;;;;-2.24;83.22;98101.98;2147905;83;21641;-60
2021/12/28 13:16:17;;;;;;;35.45;15.88;;;;;;;-2.21;82.79;98096.77;2131134;84;21520;-61
2021/12/28 13:19:17;;;;;;;35.63;15.85;;;;;;;-2.22;82.37;98105.34;2147977;83;21040;-61
2021/12/28 13:22:18;;;;;;;35.70;16.62;;;;;;;-2.25;81.54;98113.13;2131544;84;20969;-62
2021/12/28 13:25:19;;;;;;;35.55;16.52;;;;;;;-2.46;81.70;98108.84;2147706;83;21055;-61
2021/12/28 13:28:20;;;;;;;38.28;15.85;;;;;;;-2.56;82.11;98093.63;2131427;84;21107;-61
2021/12/28 13:31:20;;;;;;;36.30;15.68;;;;;;;-2.70;81.68;98108.88;2148323;83;21518;-62
2021/12/28 13:34:21;;;;;;;36.45;15.85;;;;;;;-2.81;82.34;98103.09;2131593;84;20987;-61
2021/12/28 13:37:21;;;;;;;38.35;16.23;;;;;;;-2.87;82.50;98109.63;2148161;83;20971;-60
2021/12/28 13:40:22;;;;;;;37.50;16.17;;;;;;;-2.87;83.03;98107.90;2131376;84;21060;-61
2021/12/28 13:43:23;;;;;;;38.80;16.25;;;;;;;-2.91;83.05;98105.42;2148061;83;21031;-61
2021/12/28 13:46:24;;;;;;;35.78;15.50;;;;;;;-3.02;83.03;98088.47;2131748;84;21574;-61
2021/12/28 13:49:25;;;;;;;35.65;14.87;;;;;;;-3.15;83.00;98090.86;2147995;83;20979;-61
2021/12/28 13:52:26;;;;;;;36.60;16.20;;;;;;;-3.28;83.14;98086.38;2131906;84;20996;-61
2021/12/28 13:55:26;;;;;;;36.15;15.00;;;;;;;-3.37;83.40;98095.52;2148125;83;20983;-61
2021/12/28 13:58:27;;;;;;;36.15;15.60;;;;;;;-3.45;83.63;98102.03;2131265;84;21004;-61